Time;durP1;ratioP1;P1;durP2;ratioP2;P2;SDS_P1;SDS_P2;PMS_P1;PMS_P2;Temp;Humidity;BMP_temperature;BMP_pressure;BME280_temperature;BME280_humidity;BME280_pressure;Samples;Min_cycle;Max_cycle;Signal;HPM_P1;HPM_P2
2022/04/21 00:01:19;;;;;;;18.37;10.05;;;;;;;1.99;79.33;98460.81;4470065;32;20438;-70
2022/04/21 00:03:47;;;;;;;20.52;10.18;;;;;;;2.01;79.42;98452.97;4469848;32;20100;-70
2022/04/21 00:06:16;;;;;;;18.70;9.95;;;;;;;2.01;79.30;98451.22;4470148;32;20093;-70
2022/04/21 00:08:43;;;;;;;17.23;10.52;;;;;;;2.04;79.19;98452.78;4469903;32;20115;-70
2022/04/21 00:11:11;;;;;;;16.10;9.75;;;;;;;2.02;79.82;98454.66;4470117;32;20161;-70
2022/04/21 00:13:38;;;;;;;18.20;10.30;;;;;;;2.01;79.93;98451.22;4470061;32;20157;-70
2022/04/21 00:16:05;;;;;;;17.27;9.77;;;;;;;1.97;79.91;98454.06;4470234;32;20111;-70
2022/04/21 00:18:33;;;;;;;19.80;9.85;;;;;;;1.95;80.27;98455.00;4469962;32;20213;-70
2022/04/21 00:21:01;;;;;;;19.98;9.68;;;;;;;1.93;80.33;98445.69;4469989;32;20089;-70
2022/04/21 00:23:29;;;;;;;18.87;10.18;;;;;;;1.95;80.13;98449.00;4470185;32;20097;-70
2022/04/21 00:26:01;;;;;;;21.20;10.23;;;;;;;2.02;79.24;98445.13;4469983;32;20156;-70
2022/04/21 00:28:29;;;;;;;22.37;11.20;;;;;;;2.10;78.23;98452.41;4469733;32;20111;-70
2022/04/21 00:30:57;;;;;;;18.70;10.77;;;;;;;2.12;78.21;98448.00;4480046;32;20591;-70
2022/04/21 00:33:24;;;;;;;18.50;10.77;;;;;;;2.26;77.31;98447.19;4485389;31;20112;-70
2022/04/21 00:35:51;;;;;;;21.00;10.90;;;;;;;2.37;76.71;98446.53;4485581;31;20100;-70
2022/04/21 00:38:18;;;;;;;22.40;11.40;;;;;;;2.29;76.37;98447.81;4485567;31;20108;-70
2022/04/21 00:40:45;;;;;;;22.92;11.50;;;;;;;2.29;76.39;98447.81;4485486;31;20598;-70
2022/04/21 00:43:12;;;;;;;27.08;13.43;;;;;;;2.21;76.44;98439.69;4485588;31;20127;-70
2022/04/21 00:45:40;;;;;;;22.33;12.57;;;;;;;2.20;76.22;98442.38;4485655;32;20151;-70
2022/04/21 00:48:07;;;;;;;24.55;12.82;;;;;;;2.19;76.45;98436.34;4485614;32;20088;-70
2022/04/21 00:50:37;;;;;;;25.42;14.05;;;;;;;2.15;76.60;98437.50;4485696;31;20123;-70
2022/04/21 00:53:05;;;;;;;22.23;12.43;;;;;;;2.15;76.96;98440.06;4484985;31;20589;-70
2022/04/21 00:55:32;;;;;;;27.37;13.27;;;;;;;2.16;76.67;98436.53;4484073;32;20157;-70
2022/04/21 00:58:04;;;;;;;24.48;13.57;;;;;;;2.26;75.72;98442.81;4485363;31;20111;-70
2022/04/21 01:00:32;;;;;;;26.60;12.10;;;;;;;2.34;75.17;98433.78;4485312;32;20118;-70
2022/04/21 01:03:00;;;;;;;22.13;12.37;;;;;;;2.39;74.91;98431.75;4485326;32;20104;-70
2022/04/21 01:05:29;;;;;;;20.42;11.45;;;;;;;2.33;75.08;98434.69;4485043;31;20133;-70
2022/04/21 01:08:08;;;;;;;29.08;11.63;;;;;;;2.30;75.15;98439.13;4485314;31;20097;-70
2022/04/21 01:10:37;;;;;;;24.00;11.32;;;;;;;2.37;74.62;98431.84;4485215;31;20095;-70
2022/04/21 01:13:06;;;;;;;24.12;12.40;;;;;;;2.40;74.45;98434.22;4485337;31;20573;-70
2022/04/21 01:15:35;;;;;;;25.48;12.43;;;;;;;2.35;74.58;98428.53;4485222;31;20175;-70
2022/04/21 01:18:03;;;;;;;22.73;11.63;;;;;;;2.29;76.23;98436.66;4485274;31;20100;-70
2022/04/21 01:20:32;;;;;;;21.10;11.00;;;;;;;2.24;76.47;98434.34;4485289;31;20093;-70
2022/04/21 01:22:59;;;;;;;21.90;11.43;;;;;;;2.18;76.56;98439.03;4485307;31;20126;-70
2022/04/21 01:25:27;;;;;;;21.35;11.70;;;;;;;2.11;76.98;98423.91;4485191;31;20104;-70
2022/04/21 01:27:57;;;;;;;19.20;10.88;;;;;;;2.09;77.24;98423.19;4485079;31;20143;-70
2022/04/21 01:30:24;;;;;;;20.20;10.57;;;;;;;2.08;77.19;98429.25;4485072;31;20093;-70
2022/04/21 01:32:51;;;;;;;21.02;11.23;;;;;;;2.04;77.23;98424.38;4485206;31;20581;-70
2022/04/21 01:35:19;;;;;;;20.95;11.07;;;;;;;2.02;78.14;98427.03;4483468;32;20100;-70
2022/04/21 01:43:26;;;;;;;23.58;11.30;;;;;;;1.95;78.34;98418.84;4451422;32;20120;-70
2022/04/21 01:45:54;;;;;;;17.20;9.77;;;;;;;1.86;78.73;98424.56;4451266;32;20177;-70
2022/04/21 01:48:21;;;;;;;18.17;10.88;;;;;;;1.81;79.40;98420.56;4451705;32;20121;-70
2022/04/21 01:50:48;;;;;;;21.50;10.90;;;;;;;1.80;79.99;98418.91;4451188;32;20575;-70
2022/04/21 01:53:15;;;;;;;16.73;9.85;;;;;;;1.81;79.51;98415.41;4451372;32;20165;-70
2022/04/21 01:55:42;;;;;;;20.83;11.02;;;;;;;1.75;79.77;98411.44;4451301;32;20171;-70
2022/04/21 01:58:09;;;;;;;21.52;10.70;;;;;;;1.71;80.25;98420.28;4451165;32;20139;-70
2022/04/21 02:00:37;;;;;;;18.65;10.57;;;;;;;1.68;80.31;98416.13;4451352;32;20097;-70
2022/04/21 02:03:04;;;;;;;23.85;10.63;;;;;;;1.71;80.07;98409.94;4451271;32;20109;-70
2022/04/21 02:05:32;;;;;;;19.80;10.75;;;;;;;1.73;80.29;98415.87;4449765;32;20127;-70
2022/04/21 02:08:00;;;;;;;17.23;10.50;;;;;;;1.70;80.28;98414.28;4438037;32;20121;-70
2022/04/21 02:10:27;;;;;;;18.73;11.30;;;;;;;1.69;80.26;98411.78;4450881;32;20552;-70
2022/04/21 02:12:54;;;;;;;20.50;11.23;;;;;;;1.68;80.02;98410.13;4451229;32;20221;-70
2022/04/21 02:15:23;;;;;;;20.37;10.82;;;;;;;1.68;79.99;98404.97;4450995;32;20201;-70
2022/04/21 02:17:50;;;;;;;19.25;10.23;;;;;;;1.67;80.42;98403.31;4471693;32;20108;-70
2022/04/21 02:20:18;;;;;;;17.85;10.25;;;;;;;1.66;80.30;98401.66;4484414;31;20134;-70
2022/04/21 02:22:46;;;;;;;18.80;10.68;;;;;;;1.61;80.89;98395.94;4484659;31;20100;-70
2022/04/21 02:25:15;;;;;;;18.60;10.68;;;;;;;1.61;80.41;98398.50;4484486;31;20187;-70
2022/04/21 02:27:44;;;;;;;18.10;10.82;;;;;;;1.70;79.59;98400.56;4484621;31;20112;-70
2022/04/21 02:30:13;;;;;;;18.05;9.93;;;;;;;1.81;78.15;98399.91;4484348;31;20588;-70
2022/04/21 02:32:41;;;;;;;17.92;9.57;;;;;;;1.94;77.67;98400.84;4484539;31;20457;-70
2022/04/21 02:35:10;;;;;;;19.33;10.32;;;;;;;1.94;77.70;98399.09;4484223;31;20559;-70
2022/04/21 02:37:39;;;;;;;16.08;9.75;;;;;;;1.95;77.97;98410.25;4484652;31;20552;-70
2022/04/21 02:40:07;;;;;;;16.40;9.38;;;;;;;2.04;77.17;98396.78;4484251;31;20109;-70
2022/04/21 02:42:38;;;;;;;18.37;10.95;;;;;;;2.09;76.92;98392.16;4484364;31;20445;-70
2022/04/21 02:45:09;;;;;;;17.27;9.70;;;;;;;2.12;77.09;98389.41;4484438;31;20502;-70
2022/04/21 02:47:38;;;;;;;18.92;9.45;;;;;;;2.13;76.75;98390.22;4484439;31;20080;-70
2022/04/21 02:50:05;;;;;;;16.27;9.75;;;;;;;2.12;77.03;98386.81;4483056;32;20096;-70
2022/04/21 02:52:41;;;;;;;18.05;9.93;;;;;;;2.21;76.58;98390.59;4484470;31;20088;-70
2022/04/21 02:57:56;;;;;;;18.33;10.20;;;;;;;2.30;75.80;98392.63;4484413;31;20096;-70
2022/04/21 03:00:23;;;;;;;16.20;9.65;;;;;;;2.26;75.93;98396.31;4484032;31;20557;-70
2022/04/21 03:02:50;;;;;;;15.57;9.57;;;;;;;2.17;76.24;98391.69;4484138;31;20088;-70
2022/04/21 03:05:18;;;;;;;16.12;9.25;;;;;;;2.11;76.69;98386.91;4483964;31;20101;-70
2022/04/21 03:07:46;;;;;;;15.50;9.43;;;;;;;2.02;77.00;98385.72;4484062;31;20505;-70
2022/04/21 03:10:13;;;;;;;16.98;9.48;;;;;;;1.93;78.35;98387.09;4483956;31;20492;-70
2022/04/21 03:12:40;;;;;;;15.55;9.23;;;;;;;1.88;79.07;98386.53;4484215;31;20466;-70
2022/04/21 03:15:11;;;;;;;15.95;9.45;;;;;;;1.81;80.17;98387.00;4484305;32;20172;-70
2022/04/21 03:17:39;;;;;;;16.92;9.60;;;;;;;1.76;80.19;98387.28;4484857;32;20530;-70
2022/04/21 03:20:07;;;;;;;15.73;8.57;;;;;;;1.73;80.15;98393.44;4486477;31;20126;-70
2022/04/21 03:25:20;;;;;;;17.65;10.25;;;;;;;1.67;80.61;98382.66;4486470;31;20083;-70
2022/04/21 03:27:50;;;;;;;17.55;8.70;;;;;;;1.67;80.48;98382.66;4485909;31;20096;-70
2022/04/21 03:30:17;;;;;;;16.73;9.20;;;;;;;1.70;80.48;98387.66;4486038;32;20183;-70
2022/04/21 03:32:45;;;;;;;18.60;10.18;;;;;;;1.78;80.17;98390.59;4485798;31;20131;-70
2022/04/21 03:35:12;;;;;;;19.25;9.48;;;;;;;1.77;80.25;98391.50;4485907;32;20097;-70
2022/04/21 03:37:39;;;;;;;15.35;9.80;;;;;;;1.77;80.03;98392.34;4486021;31;20089;-70
2022/04/21 03:40:07;;;;;;;19.85;9.45;;;;;;;1.74;80.65;98391.69;4485906;31;20122;-70
2022/04/21 03:42:34;;;;;;;14.75;9.10;;;;;;;1.64;81.16;98388.81;4485873;31;20136;-70
2022/04/21 03:45:01;;;;;;;14.57;8.40;;;;;;;1.61;81.58;98386.44;4485994;31;20100;-70
2022/04/21 03:47:28;;;;;;;14.85;8.32;;;;;;;1.65;81.55;98389.66;4485721;31;20119;-70
2022/04/21 03:49:56;;;;;;;15.70;8.45;;;;;;;1.66;81.26;98386.97;4486053;32;20131;-70
2022/04/21 03:52:23;;;;;;;16.42;8.93;;;;;;;1.71;80.97;98390.13;4485716;31;20114;-70
2022/04/21 03:54:50;;;;;;;15.60;8.60;;;;;;;1.77;80.99;98394.94;4486079;31;20123;-70
2022/04/21 03:57:18;;;;;;;14.55;8.82;;;;;;;1.87;80.49;98397.78;4486081;31;20092;-71
2022/04/21 03:59:45;;;;;;;14.52;8.38;;;;;;;1.83;80.63;98388.56;4485900;31;20119;-71
2022/04/21 04:02:12;;;;;;;15.93;8.88;;;;;;;1.89;80.32;98398.53;4485669;31;20089;-71
2022/04/21 04:04:40;;;;;;;16.25;9.00;;;;;;;1.98;80.13;98404.88;4485372;32;20108;-71
2022/04/21 04:12:40;;;;;;;13.80;8.80;;;;;;;2.07;79.48;98406.91;4485627;31;20779;-71
2022/04/21 04:15:09;;;;;;;17.85;9.48;;;;;;;2.21;78.88;98405.25;4484000;32;20146;-71
2022/04/21 04:17:37;;;;;;;21.23;9.98;;;;;;;2.26;78.62;98409.22;4484688;32;20134;-71
2022/04/21 04:20:05;;;;;;;16.87;9.32;;;;;;;2.32;78.44;98405.44;4484132;31;20100;-71
2022/04/21 04:22:37;;;;;;;13.40;9.05;;;;;;;2.43;77.88;98405.59;4485177;32;20093;-71
2022/04/21 04:25:05;;;;;;;15.60;9.02;;;;;;;2.56;77.98;98405.69;4485290;31;20087;-72
2022/04/21 04:27:32;;;;;;;16.58;8.82;;;;;;;2.66;78.34;98406.78;4484712;31;20127;-71
2022/04/21 04:29:59;;;;;;;15.73;9.32;;;;;;;2.75;77.76;98412.28;4485407;31;20156;-72
2022/04/21 04:32:26;;;;;;;16.42;8.70;;;;;;;2.88;77.63;98412.31;4484859;31;20560;-72
2022/04/21 04:34:53;;;;;;;18.85;11.18;;;;;;;3.04;77.17;98417.38;4484822;31;20080;-72
2022/04/21 04:37:21;;;;;;;14.85;8.70;;;;;;;3.26;76.80;98415.06;4485424;31;20168;-72
2022/04/21 04:39:48;;;;;;;16.37;8.60;;;;;;;3.42;75.40;98417.47;4484539;31;20101;-72
2022/04/21 04:42:17;;;;;;;15.10;8.82;;;;;;;3.59;75.23;98418.97;4485414;31;20123;-72
2022/04/21 04:44:45;;;;;;;15.05;9.18;;;;;;;3.73;74.56;98421.44;4485193;32;20114;-72
2022/04/21 04:47:13;;;;;;;22.10;8.93;;;;;;;3.88;74.12;98423.94;4484961;31;20119;-72
2022/04/21 04:49:41;;;;;;;14.52;8.48;;;;;;;4.06;73.86;98425.28;4480279;31;20445;-72
2022/04/21 04:52:08;;;;;;;22.30;9.38;;;;;;;4.28;73.14;98426.41;4480415;32;20096;-71
2022/04/21 04:54:36;;;;;;;20.75;9.68;;;;;;;4.47;73.19;98422.53;4481182;32;20116;-72
2022/04/21 04:57:03;;;;;;;15.73;9.57;;;;;;;4.60;72.88;98425.94;4482963;31;20480;-72
2022/04/21 04:59:31;;;;;;;16.27;9.25;;;;;;;4.76;72.94;98426.50;4480341;32;20096;-71
2022/04/21 05:01:59;;;;;;;17.48;8.52;;;;;;;5.04;72.68;98424.56;4479911;31;20153;-71
2022/04/21 05:04:26;;;;;;;15.63;8.43;;;;;;;5.33;71.89;98421.59;4476942;32;20145;-71
2022/04/21 05:06:55;;;;;;;13.73;8.68;;;;;;;5.59;71.48;98424.06;4476898;32;20148;-72
2022/04/21 05:09:23;;;;;;;14.43;8.25;;;;;;;5.85;70.28;98428.09;4483378;32;20167;-72
2022/04/21 05:11:52;;;;;;;14.48;8.50;;;;;;;6.22;69.41;98432.31;4478336;32;20111;-72
2022/04/21 05:14:21;;;;;;;13.27;8.13;;;;;;;6.58;66.62;98433.00;4479844;31;20566;-72
2022/04/21 05:16:49;;;;;;;18.17;8.00;;;;;;;6.83;63.80;98431.91;4480553;32;20109;-72
2022/04/21 05:19:17;;;;;;;10.82;7.12;;;;;;;6.97;63.88;98425.59;4481463;32;20195;-72
2022/04/21 05:21:46;;;;;;;12.02;7.35;;;;;;;7.09;63.93;98426.41;4475228;32;20105;-72
2022/04/21 05:24:14;;;;;;;16.25;6.65;;;;;;;7.17;63.38;98425.78;4481891;32;20099;-72
2022/04/21 05:26:42;;;;;;;10.77;6.57;;;;;;;7.23;62.51;98427.88;4481740;31;20168;-72
2022/04/21 05:31:56;;;;;;;11.50;6.40;;;;;;;7.39;63.07;98424.88;4478708;32;20122;-72
2022/04/21 05:34:25;;;;;;;10.50;6.28;;;;;;;7.43;62.78;98428.88;4480328;31;20148;-72
2022/04/21 05:36:54;;;;;;;9.65;6.78;;;;;;;7.43;63.03;98426.25;4484677;31;20167;-72
2022/04/21 05:39:21;;;;;;;10.45;6.90;;;;;;;7.63;62.79;98420.25;4485206;31;20093;-72
2022/04/21 05:41:51;;;;;;;9.77;6.65;;;;;;;7.65;62.13;98420.12;4484900;31;20096;-72
2022/04/21 05:44:19;;;;;;;11.43;6.30;;;;;;;7.72;62.13;98418.66;4484444;31;20096;-72
2022/04/21 05:46:47;;;;;;;14.57;6.22;;;;;;;7.86;62.53;98419.25;4485096;31;20115;-71
2022/04/21 05:49:15;;;;;;;9.43;5.90;;;;;;;8.02;61.33;98418.81;4484902;31;20552;-72
2022/04/21 05:51:42;;;;;;;8.27;5.62;;;;;;;8.20;62.08;98419.03;4483928;32;20092;-72
2022/04/21 05:54:09;;;;;;;8.40;5.50;;;;;;;8.33;60.82;98415.25;4484617;31;20145;-72
2022/04/21 05:56:38;;;;;;;9.85;6.10;;;;;;;8.40;59.16;98425.16;4485016;31;20188;-72
2022/04/21 05:59:05;;;;;;;7.15;5.28;;;;;;;8.57;59.27;98415.91;4483089;31;20133;-72
2022/04/21 06:01:32;;;;;;;8.88;5.80;;;;;;;8.78;58.92;98423.66;4483951;31;20511;-72
2022/04/21 06:04:00;;;;;;;12.25;6.65;;;;;;;8.80;58.36;98429.59;4478304;31;109188;-72
2022/04/21 06:06:27;;;;;;;9.23;5.18;;;;;;;8.90;57.99;98414.72;4480590;31;20126;-72
2022/04/21 06:08:54;;;;;;;8.07;5.30;;;;;;;9.11;58.05;98413.81;4482085;32;20359;-73
2022/04/21 06:11:22;;;;;;;7.40;5.32;;;;;;;9.13;56.94;98415.34;4480525;31;20729;-72
2022/04/21 06:13:50;;;;;;;7.82;5.07;;;;;;;9.24;56.97;98423.03;4478846;31;20093;-73
2022/04/21 06:16:17;;;;;;;5.93;4.25;;;;;;;9.41;55.75;98421.50;4474074;31;20537;-73
2022/04/21 06:18:45;;;;;;;8.05;5.25;;;;;;;9.29;55.00;98420.00;4475044;32;20128;-72
2022/04/21 06:21:12;;;;;;;7.25;5.20;;;;;;;9.31;55.36;98425.94;4475421;31;20096;-73
2022/04/21 06:23:39;;;;;;;8.00;4.57;;;;;;;9.37;55.12;98417.53;4477146;31;20114;-72
2022/04/21 06:26:06;;;;;;;6.85;4.60;;;;;;;9.46;53.93;98421.09;4481826;31;20215;-71
2022/04/21 06:28:34;;;;;;;8.48;4.80;;;;;;;9.47;53.07;98422.75;4478680;32;20115;-73
2022/04/21 06:31:01;;;;;;;5.40;3.95;;;;;;;9.62;53.56;98427.56;4480048;31;20167;-74
2022/04/21 06:33:32;;;;;;;7.00;4.95;;;;;;;9.74;52.49;98419.41;4478735;31;20088;-73
2022/04/21 06:36:03;;;;;;;5.28;4.53;;;;;;;9.86;51.77;98420.09;4480045;32;20108;-73
2022/04/21 06:38:30;;;;;;;8.00;4.45;;;;;;;9.98;51.75;98420.75;4487419;31;20449;-73
2022/04/21 06:40:57;;;;;;;6.93;4.00;;;;;;;10.19;51.78;98415.31;4477474;31;20120;-72
2022/04/21 06:48:57;;;;;;;7.05;3.37;;;;;;;10.33;50.02;98423.69;4478956;31;20084;-72
2022/04/21 06:51:27;;;;;;;6.05;3.60;;;;;;;10.41;50.26;98410.72;4479855;31;20116;-71
2022/04/21 06:53:54;;;;;;;8.18;3.72;;;;;;;10.37;48.90;98412.81;4478294;31;20107;-73
2022/04/21 06:56:22;;;;;;;6.15;3.95;;;;;;;10.55;49.09;98414.63;4483708;32;20165;-73
2022/04/21 06:58:55;;;;;;;6.15;3.47;;;;;;;10.69;48.46;98406.31;4482593;31;22029;-73
2022/04/21 07:01:23;;;;;;;5.95;3.90;;;;;;;10.83;48.19;98411.03;4481978;31;20093;-72
2022/04/21 07:03:50;;;;;;;4.30;3.37;;;;;;;10.96;48.36;98407.22;4479522;31;20446;-73
2022/04/21 07:06:18;;;;;;;5.28;3.80;;;;;;;11.24;47.39;98407.16;4485374;32;20442;-73
2022/04/21 07:08:45;;;;;;;5.12;3.72;;;;;;;11.09;45.58;98404.25;4481548;31;20097;-73
2022/04/21 07:11:12;;;;;;;4.60;3.60;;;;;;;10.99;46.35;98407.75;4479539;31;21098;-73
2022/04/21 07:13:40;;;;;;;12.75;4.43;;;;;;;10.98;46.67;98406.09;4479702;32;20115;-74
2022/04/21 07:16:07;;;;;;;6.70;3.83;;;;;;;11.26;47.66;98410.47;4482821;31;20108;-72
2022/04/21 07:18:34;;;;;;;6.07;3.90;;;;;;;11.49;48.57;98406.41;4488997;31;20088;-73
2022/04/21 07:21:03;;;;;;;5.15;3.67;;;;;;;11.57;46.90;98415.28;4485902;31;20720;-75
2022/04/21 07:23:31;;;;;;;5.15;4.20;;;;;;;11.68;44.89;98412.44;4478277;32;20147;-73
2022/04/21 07:25:58;;;;;;;5.72;4.03;;;;;;;11.64;46.39;98413.72;4480285;32;20138;-74
2022/04/21 07:28:25;;;;;;;5.82;3.87;;;;;;;11.45;45.15;98417.34;4482241;31;20168;-73
2022/04/21 07:30:52;;;;;;;8.35;3.65;;;;;;;11.69;45.98;98414.09;4475295;31;21723;-75
2022/04/21 07:33:20;;;;;;;4.93;4.10;;;;;;;11.76;45.95;98412.47;4479847;31;20099;-73
2022/04/21 07:35:48;;;;;;;10.48;4.18;;;;;;;11.86;45.70;98409.78;4480133;31;20164;-73
2022/04/21 07:38:15;;;;;;;6.12;4.12;;;;;;;12.13;46.88;98414.06;4478881;31;20501;-73
2022/04/21 07:40:42;;;;;;;7.68;3.80;;;;;;;12.27;47.21;98417.91;4482227;31;20104;-72
2022/04/21 07:43:10;;;;;;;9.63;5.28;;;;;;;12.39;45.03;98415.84;4483733;32;20100;-73
2022/04/21 07:45:38;;;;;;;7.03;5.18;;;;;;;12.12;45.70;98412.41;4483850;31;20127;-73
2022/04/21 07:48:06;;;;;;;7.75;5.18;;;;;;;12.07;47.89;98404.19;4484638;31;20092;-73
2022/04/21 07:50:34;;;;;;;6.37;4.60;;;;;;;12.42;50.43;98410.28;4483423;31;20130;-73
2022/04/21 07:53:20;;;;;;;9.68;6.18;;;;;;;12.75;47.58;98408.59;4478197;31;20203;-74
2022/04/21 07:55:52;;;;;;;12.65;6.25;;;;;;;12.36;45.12;98413.53;4481666;31;20954;-73
2022/04/21 07:58:21;;;;;;;8.50;4.93;;;;;;;12.47;47.72;98410.59;4480674;31;20106;-74
2022/04/21 08:00:49;;;;;;;9.00;5.95;;;;;;;12.84;48.26;98414.69;4480577;32;20105;-73
2022/04/21 08:03:19;;;;;;;9.45;5.55;;;;;;;12.75;43.93;98405.16;4483624;31;20511;-73
2022/04/21 08:05:47;;;;;;;10.25;6.45;;;;;;;12.60;46.41;98400.47;4481888;31;20093;-73
2022/04/21 08:08:14;;;;;;;6.35;4.62;;;;;;;12.63;48.77;98409.03;4473158;31;20149;-74
2022/04/21 08:10:42;;;;;;;6.60;4.40;;;;;;;12.78;45.94;98407.44;4478437;32;20499;-73
2022/04/21 08:13:09;;;;;;;6.60;5.30;;;;;;;12.66;43.44;98404.28;4479631;32;20116;-74
2022/04/21 08:15:36;;;;;;;12.63;5.25;;;;;;;12.79;44.93;98409.06;4481287;32;20084;-73
2022/04/21 08:18:05;;;;;;;9.25;5.15;;;;;;;12.99;49.75;98414.06;4484758;32;20169;-75
2022/04/21 08:20:34;;;;;;;8.93;5.07;;;;;;;13.27;47.60;98418.03;4480248;32;20138;-73
2022/04/21 08:23:04;;;;;;;6.03;4.60;;;;;;;13.17;46.67;98414.75;4478124;32;20108;-73
2022/04/21 08:34:15;;;;;;;5.35;3.72;;;;;;;13.70;45.38;98411.84;4479612;31;20141;-71
2022/04/21 08:36:42;;;;;;;13.90;4.30;;;;;;;13.81;48.20;98409.69;4478482;32;20529;-72
2022/04/21 08:39:10;;;;;;;11.82;4.80;;;;;;;14.07;45.39;98415.75;4484101;32;20107;-72
2022/04/21 08:41:42;;;;;;;9.32;5.25;;;;;;;13.99;42.16;98406.84;4481979;31;20128;-71
2022/04/21 08:44:10;;;;;;;6.93;5.10;;;;;;;14.08;41.89;98409.47;4477917;32;20157;-71
2022/04/21 08:46:39;;;;;;;7.20;4.70;;;;;;;13.87;42.22;98408.19;4482403;31;20096;-71
2022/04/21 08:49:07;;;;;;;6.30;5.12;;;;;;;14.16;46.37;98412.91;4479228;32;20114;-71
2022/04/21 08:51:34;;;;;;;5.90;3.92;;;;;;;14.14;44.05;98411.41;4483575;31;20199;-71
2022/04/21 08:54:05;;;;;;;7.85;4.05;;;;;;;14.36;41.48;98412.50;4477505;32;20592;-71
2022/04/21 08:56:32;;;;;;;5.15;4.00;;;;;;;14.52;43.50;98427.47;4472396;32;20080;-71
2022/04/21 08:59:00;;;;;;;9.05;4.78;;;;;;;14.58;44.00;98425.94;4477164;32;20127;-71
2022/04/21 09:01:27;;;;;;;6.30;4.70;;;;;;;14.62;42.05;98417.53;4476039;31;20100;-70
2022/04/21 09:03:54;;;;;;;6.05;4.82;;;;;;;14.77;44.11;98407.09;4477136;32;20152;-71
2022/04/21 09:06:22;;;;;;;6.62;4.87;;;;;;;14.84;43.02;98412.50;4482795;31;20108;-74
2022/04/21 09:09:12;;;;;;;6.82;5.35;;;;;;;14.84;39.88;98423.06;4479450;32;20127;-73
2022/04/21 09:11:43;;;;;;;7.45;5.03;;;;;;;14.77;44.76;98419.47;4480817;32;20124;-73
2022/04/21 09:14:16;;;;;;;7.62;5.32;;;;;;;14.73;45.49;98424.25;4473017;32;20139;-73
2022/04/21 09:16:44;;;;;;;7.22;4.80;;;;;;;14.79;40.61;98415.69;4478404;32;20130;-73
2022/04/21 09:19:16;;;;;;;8.32;4.12;;;;;;;14.96;42.68;98418.19;4480655;32;20500;-73
2022/04/21 09:21:43;;;;;;;5.47;4.40;;;;;;;15.14;40.77;98417.91;4482884;32;20455;-73
2022/04/21 09:24:24;;;;;;;5.30;3.80;;;;;;;15.17;41.51;98421.06;4479099;32;20084;-72
2022/04/21 09:26:52;;;;;;;6.37;4.00;;;;;;;15.29;39.72;98413.56;4479000;32;20155;-73
2022/04/21 09:29:24;;;;;;;5.97;4.43;;;;;;;15.20;36.45;98415.41;4479125;31;20114;-73
2022/04/21 09:31:56;;;;;;;7.03;4.50;;;;;;;15.07;37.99;98420.44;4480508;32;20119;-73
2022/04/21 09:34:28;;;;;;;9.77;3.45;;;;;;;15.11;38.84;98423.56;4478450;31;20084;-73
2022/04/21 09:36:59;;;;;;;4.00;3.40;;;;;;;14.89;35.65;98418.09;4477791;32;20089;-74
2022/04/21 09:39:29;;;;;;;5.37;4.10;;;;;;;15.00;34.93;98414.22;4479338;31;20107;-74
2022/04/21 09:41:56;;;;;;;4.20;3.37;;;;;;;15.10;38.09;98414.00;4486132;31;20438;-74
2022/04/21 09:47:21;;;;;;;5.47;3.47;;;;;;;15.02;40.63;98413.06;4478825;31;20869;-73
2022/04/21 09:49:48;;;;;;;6.12;4.10;;;;;;;15.08;35.65;98408.91;4481497;31;20097;-74
2022/04/21 09:52:30;;;;;;;6.03;4.12;;;;;;;15.36;39.22;98409.19;4478547;32;20162;-72
2022/04/21 09:54:58;;;;;;;6.12;4.18;;;;;;;15.70;41.63;98409.72;4475132;31;20113;-73
2022/04/21 09:57:30;;;;;;;5.43;4.12;;;;;;;15.41;40.78;98411.28;4481467;31;20206;-73
2022/04/21 09:59:58;;;;;;;5.32;4.20;;;;;;;14.94;37.69;98397.25;4482379;31;20096;-74
2022/04/21 10:02:27;;;;;;;6.78;4.60;;;;;;;14.58;37.39;98395.16;4482395;32;20127;-73
2022/04/21 10:04:55;;;;;;;7.47;4.07;;;;;;;14.62;40.17;98393.81;4476625;31;20096;-72
2022/04/21 10:07:22;;;;;;;9.32;4.00;;;;;;;15.05;41.67;98388.97;4472163;32;20370;-74
2022/04/21 10:09:49;;;;;;;5.35;4.30;;;;;;;15.34;40.97;98390.09;4471110;32;20089;-72
2022/04/21 10:12:18;;;;;;;6.00;4.50;;;;;;;15.01;38.69;98390.31;4478158;31;20108;-73
2022/04/21 10:14:45;;;;;;;5.45;4.15;;;;;;;15.15;41.13;98399.28;4474987;32;20101;-73
2022/04/21 10:17:13;;;;;;;9.35;5.00;;;;;;;14.92;38.12;98395.81;4477330;31;20137;-73
2022/04/21 10:19:41;;;;;;;6.18;4.97;;;;;;;15.14;38.09;98388.91;4477083;31;20084;-73
2022/04/21 10:22:13;;;;;;;7.45;4.30;;;;;;;15.21;37.20;98390.66;4481710;31;20161;-73
2022/04/21 10:24:41;;;;;;;5.95;4.50;;;;;;;15.16;38.81;98386.94;4474307;32;20088;-73
2022/04/21 10:27:57;;;;;;;5.85;4.47;;;;;;;15.28;39.51;98390.78;4477978;32;20123;-73
2022/04/21 10:30:30;;;;;;;5.20;4.22;;;;;;;15.50;38.04;98399.66;4467211;32;20119;-73
2022/04/21 10:32:59;;;;;;;;;;;;;;;15.48;39.28;98390.31;4479392;32;20096;-72
2022/04/21 10:35:33;;;;;;;5.50;4.75;;;;;;;15.42;35.85;98382.09;4475858;32;19972;-75
2022/04/21 10:38:13;;;;;;;9.95;4.57;;;;;;;15.52;41.70;98386.28;4481233;31;20172;-71
2022/04/21 10:41:02;;;;;;;5.85;4.50;;;;;;;15.65;38.98;98373.31;4476675;32;20110;-71
2022/04/21 10:43:48;;;;;;;6.53;4.50;;;;;;;15.30;38.32;98367.66;4479727;32;20449;-71
2022/04/21 10:46:26;;;;;;;6.43;4.53;;;;;;;14.99;37.56;98376.47;4479032;32;20097;-71
2022/04/21 10:48:54;;;;;;;5.80;5.15;;;;;;;15.19;36.16;98376.03;4480410;32;20155;-70
2022/04/21 10:57:12;;;;;;;5.97;4.43;;;;;;;15.39;38.46;98377.16;4479834;32;20430;-72
2022/04/21 10:57:28;;;;;;;6.37;5.37;;;;;;;15.88;39.59;98359.25;4478006;32;20093;-70
2022/04/21 11:00:05;;;;;;;26.58;6.70;;;;;;;15.73;42.03;98357.41;4476855;32;20111;-71
2022/04/21 11:02:42;;;;;;;9.32;5.15;;;;;;;15.26;42.69;98353.19;4478031;32;20169;-71
2022/04/21 11:05:22;;;;;;;5.95;4.47;;;;;;;15.82;42.17;98365.25;4480345;32;20210;-71
2022/04/21 11:07:54;;;;;;;7.37;5.25;;;;;;;16.13;41.71;98350.06;4481597;32;20124;-71
2022/04/21 11:10:39;;;;;;;7.72;5.05;;;;;;;15.73;39.81;98351.28;4480157;32;20092;-72
2022/04/21 11:13:10;;;;;;;6.55;5.35;;;;;;;15.77;43.13;98349.91;4481926;31;20076;-72
2022/04/21 11:15:44;;;;;;;6.18;4.60;;;;;;;15.86;38.27;98353.34;4488269;31;20144;-72
2022/04/21 11:18:18;;;;;;;;;;;;;;;15.94;38.85;98353.25;4477278;32;20096;-71
2022/04/21 11:20:50;;;;;;;7.82;5.55;;;;;;;15.96;37.75;98351.25;4476524;32;20042;-72
2022/04/21 11:23:30;;;;;;;5.68;4.50;;;;;;;15.30;36.93;98343.09;4481982;31;20088;-71
2022/04/21 11:26:05;;;;;;;7.22;4.10;;;;;;;15.22;39.43;98344.81;4477651;32;20570;-71
2022/04/21 11:28:32;;;;;;;5.28;4.53;;;;;;;15.84;40.11;98342.97;4480809;31;20453;-71
2022/04/21 11:31:03;;;;;;;5.82;4.93;;;;;;;16.05;36.86;98339.59;4479643;32;20105;-72
2022/04/21 11:33:31;;;;;;;5.50;4.70;;;;;;;16.09;39.23;98347.97;4480800;31;20103;-72
2022/04/21 11:36:09;;;;;;;5.53;4.30;;;;;;;16.32;40.52;98334.63;4466919;32;20248;-72
2022/04/21 11:38:40;;;;;;;9.07;4.18;;;;;;;16.42;34.41;98329.06;4480932;32;20100;-71
2022/04/21 11:41:09;;;;;;;5.00;4.10;;;;;;;16.55;37.68;98333.66;4478571;31;20120;-72
2022/04/21 11:43:48;;;;;;;5.18;4.07;;;;;;;16.95;39.33;98340.22;4477568;31;20096;-72
2022/04/21 11:46:18;;;;;;;5.93;4.32;;;;;;;17.07;37.32;98329.97;4475293;31;20110;-72
2022/04/21 11:48:47;;;;;;;7.70;5.30;;;;;;;16.94;35.40;98324.53;4491040;31;20134;-71
2022/04/21 11:51:27;;;;;;;5.07;4.55;;;;;;;17.17;38.65;98327.81;4480726;32;20100;-72
2022/04/21 11:53:55;;;;;;;6.53;4.75;;;;;;;17.33;38.23;98331.19;4482998;31;20545;-71
2022/04/21 11:56:22;;;;;;;6.60;4.72;;;;;;;17.40;36.38;98325.97;4479202;31;20145;-72
2022/04/21 11:58:49;;;;;;;9.07;4.65;;;;;;;17.15;38.30;98319.25;4481409;31;21327;-72
2022/04/21 12:06:58;;;;;;;5.47;4.60;;;;;;;17.58;35.38;98323.66;4482794;31;20121;-72
2022/04/21 12:09:34;;;;;;;6.65;4.47;;;;;;;17.31;34.93;98318.16;4479282;32;20160;-72
2022/04/21 12:12:04;;;;;;;5.72;4.15;;;;;;;17.31;35.33;98312.88;4474238;32;20141;-72
2022/04/21 12:14:31;;;;;;;7.85;4.18;;;;;;;17.36;35.93;98307.00;4483588;31;20096;-72
2022/04/21 12:17:00;;;;;;;8.63;4.43;;;;;;;17.14;36.07;98303.56;4482200;31;20092;-71
2022/04/21 12:19:33;;;;;;;6.05;4.22;;;;;;;17.34;39.56;98309.03;4483813;31;20103;-72
2022/04/21 12:22:02;;;;;;;;;;;;;;;17.34;37.52;98296.59;4480505;31;20156;-72
2022/04/21 12:24:38;;;;;;;5.68;4.78;;;;;;;17.63;36.09;98293.94;4471228;32;19979;-72
2022/04/21 12:27:20;;;;;;;26.92;4.87;;;;;;;17.45;37.28;98300.53;4484320;31;20092;-72